sensor_id;sensor_type;location;lat;lon;timestamp;P1;durP1;ratioP1;P2;durP2;ratioP2
7539;SDS011;3811;49.006;12.076;2023-06-22T00:02:03;7.73;;;6.77;;
7539;SDS011;3811;49.006;12.076;2023-06-22T00:04:31;8.17;;;7.13;;
7539;SDS011;3811;49.006;12.076;2023-06-22T00:06:59;7.17;;;6.13;;
7539;SDS011;3811;49.006;12.076;2023-06-22T00:09:26;7.60;;;6.73;;
7539;SDS011;3811;49.006;12.076;2023-06-22T00:11:54;7.83;;;6.57;;
7539;SDS011;3811;49.006;12.076;2023-06-22T00:14:21;11.03;;;6.67;;
7539;SDS011;3811;49.006;12.076;2023-06-22T00:16:48;7.97;;;6.40;;
7539;SDS011;3811;49.006;12.076;2023-06-22T00:19:19;8.50;;;5.93;;
7539;SDS011;3811;49.006;12.076;2023-06-22T00:21:47;6.73;;;5.93;;
7539;SDS011;3811;49.006;12.076;2023-06-22T00:24:19;7.07;;;6.27;;
7539;SDS011;3811;49.006;12.076;2023-06-22T00:26:47;8.57;;;6.03;;
7539;SDS011;3811;49.006;12.076;2023-06-22T00:29:15;7.97;;;6.27;;
7539;SDS011;3811;49.006;12.076;2023-06-22T00:31:43;7.80;;;6.67;;
7539;SDS011;3811;49.006;12.076;2023-06-22T00:34:10;8.03;;;6.80;;
7539;SDS011;3811;49.006;12.076;2023-06-22T00:36:38;8.60;;;7.47;;
7539;SDS011;3811;49.006;12.076;2023-06-22T00:39:06;7.43;;;6.47;;
7539;SDS011;3811;49.006;12.076;2023-06-22T00:41:35;7.67;;;6.87;;
7539;SDS011;3811;49.006;12.076;2023-06-22T00:44:03;8.13;;;7.33;;
7539;SDS011;3811;49.006;12.076;2023-06-22T00:46:32;7.23;;;6.53;;
7539;SDS011;3811;49.006;12.076;2023-06-22T00:48:59;7.57;;;6.87;;
7539;SDS011;3811;49.006;12.076;2023-06-22T00:51:27;8.77;;;6.87;;
7539;SDS011;3811;49.006;12.076;2023-06-22T00:53:54;9.47;;;6.93;;
7539;SDS011;3811;49.006;12.076;2023-06-22T00:56:22;9.13;;;7.13;;
7539;SDS011;3811;49.006;12.076;2023-06-22T00:58:52;7.47;;;6.60;;
7539;SDS011;3811;49.006;12.076;2023-06-22T01:01:22;8.23;;;6.93;;
7539;SDS011;3811;49.006;12.076;2023-06-22T01:03:49;10.50;;;7.67;;
7539;SDS011;3811;49.006;12.076;2023-06-22T01:06:19;12.73;;;7.07;;
7539;SDS011;3811;49.006;12.076;2023-06-22T01:08:56;7.60;;;6.60;;
7539;SDS011;3811;49.006;12.076;2023-06-22T01:11:24;8.57;;;6.70;;
7539;SDS011;3811;49.006;12.076;2023-06-22T01:13:55;9.20;;;6.90;;
7539;SDS011;3811;49.006;12.076;2023-06-22T01:16:26;9.57;;;6.60;;
7539;SDS011;3811;49.006;12.076;2023-06-22T01:18:54;9.03;;;6.70;;
7539;SDS011;3811;49.006;12.076;2023-06-22T01:21:23;7.37;;;6.60;;
7539;SDS011;3811;49.006;12.076;2023-06-22T01:23:53;11.70;;;6.63;;
7539;SDS011;3811;49.006;12.076;2023-06-22T01:26:28;9.27;;;7.83;;
7539;SDS011;3811;49.006;12.076;2023-06-22T01:29:02;7.10;;;6.50;;
7539;SDS011;3811;49.006;12.076;2023-06-22T01:31:31;7.83;;;6.80;;
7539;SDS011;3811;49.006;12.076;2023-06-22T01:34:01;7.40;;;6.60;;
7539;SDS011;3811;49.006;12.076;2023-06-22T01:36:30;9.37;;;6.50;;
7539;SDS011;3811;49.006;12.076;2023-06-22T01:38:58;8.57;;;7.17;;
7539;SDS011;3811;49.006;12.076;2023-06-22T01:41:26;7.80;;;6.90;;
7539;SDS011;3811;49.006;12.076;2023-06-22T01:43:55;7.60;;;6.57;;
7539;SDS011;3811;49.006;12.076;2023-06-22T01:46:24;8.63;;;6.70;;
7539;SDS011;3811;49.006;12.076;2023-06-22T01:48:51;8.23;;;6.53;;
7539;SDS011;3811;49.006;12.076;2023-06-22T01:51:21;7.97;;;6.73;;
7539;SDS011;3811;49.006;12.076;2023-06-22T01:53:48;7.80;;;7.00;;
7539;SDS011;3811;49.006;12.076;2023-06-22T01:56:18;8.43;;;6.67;;
7539;SDS011;3811;49.006;12.076;2023-06-22T01:58:47;10.37;;;7.80;;
7539;SDS011;3811;49.006;12.076;2023-06-22T02:01:17;10.20;;;8.37;;
7539;SDS011;3811;49.006;12.076;2023-06-22T02:03:50;8.50;;;7.43;;
7539;SDS011;3811;49.006;12.076;2023-06-22T02:06:21;8.13;;;7.33;;
7539;SDS011;3811;49.006;12.076;2023-06-22T02:08:51;10.97;;;7.40;;
7539;SDS011;3811;49.006;12.076;2023-06-22T02:11:21;9.80;;;7.47;;
7539;SDS011;3811;49.006;12.076;2023-06-22T02:13:49;9.63;;;7.47;;
7539;SDS011;3811;49.006;12.076;2023-06-22T02:16:16;8.33;;;7.40;;
7539;SDS011;3811;49.006;12.076;2023-06-22T02:18:45;10.13;;;7.67;;
7539;SDS011;3811;49.006;12.076;2023-06-22T02:21:18;9.67;;;7.70;;
7539;SDS011;3811;49.006;12.076;2023-06-22T02:23:45;11.07;;;7.60;;
7539;SDS011;3811;49.006;12.076;2023-06-22T02:26:13;8.10;;;6.63;;
7539;SDS011;3811;49.006;12.076;2023-06-22T02:28:40;7.93;;;7.20;;
7539;SDS011;3811;49.006;12.076;2023-06-22T02:31:08;11.43;;;7.50;;
7539;SDS011;3811;49.006;12.076;2023-06-22T02:33:36;7.30;;;6.57;;
7539;SDS011;3811;49.006;12.076;2023-06-22T02:36:03;8.47;;;6.90;;
7539;SDS011;3811;49.006;12.076;2023-06-22T02:38:35;7.93;;;6.60;;
7539;SDS011;3811;49.006;12.076;2023-06-22T02:41:02;8.87;;;6.87;;
7539;SDS011;3811;49.006;12.076;2023-06-22T02:43:31;8.60;;;6.30;;
7539;SDS011;3811;49.006;12.076;2023-06-22T02:45:58;8.00;;;7.20;;
7539;SDS011;3811;49.006;12.076;2023-06-22T02:48:26;7.30;;;6.60;;
7539;SDS011;3811;49.006;12.076;2023-06-22T02:50:53;7.83;;;7.13;;
7539;SDS011;3811;49.006;12.076;2023-06-22T02:53:21;7.77;;;6.93;;
7539;SDS011;3811;49.006;12.076;2023-06-22T02:55:50;9.00;;;6.37;;
7539;SDS011;3811;49.006;12.076;2023-06-22T02:58:17;7.73;;;6.93;;
7539;SDS011;3811;49.006;12.076;2023-06-22T03:00:44;8.87;;;6.50;;
7539;SDS011;3811;49.006;12.076;2023-06-22T03:03:12;6.90;;;6.20;;
7539;SDS011;3811;49.006;12.076;2023-06-22T03:05:39;8.10;;;6.47;;
7539;SDS011;3811;49.006;12.076;2023-06-22T03:08:09;7.43;;;6.70;;
7539;SDS011;3811;49.006;12.076;2023-06-22T03:10:37;8.30;;;7.13;;
7539;SDS011;3811;49.006;12.076;2023-06-22T03:13:05;9.00;;;7.33;;
7539;SDS011;3811;49.006;12.076;2023-06-22T03:15:33;7.40;;;6.80;;
7539;SDS011;3811;49.006;12.076;2023-06-22T03:18:00;9.50;;;6.63;;
7539;SDS011;3811;49.006;12.076;2023-06-22T03:20:27;7.47;;;6.77;;
7539;SDS011;3811;49.006;12.076;2023-06-22T03:22:58;9.03;;;7.23;;
7539;SDS011;3811;49.006;12.076;2023-06-22T03:25:26;9.17;;;7.20;;
7539;SDS011;3811;49.006;12.076;2023-06-22T03:27:53;8.47;;;7.53;;
7539;SDS011;3811;49.006;12.076;2023-06-22T03:30:23;10.90;;;7.83;;
7539;SDS011;3811;49.006;12.076;2023-06-22T03:32:50;8.67;;;7.77;;
7539;SDS011;3811;49.006;12.076;2023-06-22T03:35:18;8.93;;;7.63;;
7539;SDS011;3811;49.006;12.076;2023-06-22T03:37:47;10.07;;;8.60;;
7539;SDS011;3811;49.006;12.076;2023-06-22T03:40:17;9.40;;;7.90;;
7539;SDS011;3811;49.006;12.076;2023-06-22T03:42:50;8.47;;;7.60;;
7539;SDS011;3811;49.006;12.076;2023-06-22T03:45:17;10.40;;;8.30;;
7539;SDS011;3811;49.006;12.076;2023-06-22T03:47:47;9.73;;;7.67;;
7539;SDS011;3811;49.006;12.076;2023-06-22T03:50:15;8.67;;;7.70;;
7539;SDS011;3811;49.006;12.076;2023-06-22T03:52:42;9.07;;;8.23;;
7539;SDS011;3811;49.006;12.076;2023-06-22T03:55:10;10.53;;;8.67;;
7539;SDS011;3811;49.006;12.076;2023-06-22T03:57:37;9.60;;;8.60;;
7539;SDS011;3811;49.006;12.076;2023-06-22T04:00:04;9.87;;;8.70;;
7539;SDS011;3811;49.006;12.076;2023-06-22T04:02:37;9.00;;;8.10;;
7539;SDS011;3811;49.006;12.076;2023-06-22T04:05:06;10.10;;;8.60;;
7539;SDS011;3811;49.006;12.076;2023-06-22T04:07:33;11.20;;;9.30;;
7539;SDS011;3811;49.006;12.076;2023-06-22T04:10:02;10.03;;;9.03;;
7539;SDS011;3811;49.006;12.076;2023-06-22T04:12:29;9.63;;;8.77;;
7539;SDS011;3811;49.006;12.076;2023-06-22T04:14:56;12.43;;;10.47;;
7539;SDS011;3811;49.006;12.076;2023-06-22T04:17:24;13.00;;;10.10;;
7539;SDS011;3811;49.006;12.076;2023-06-22T04:19:51;9.60;;;8.60;;
7539;SDS011;3811;49.006;12.076;2023-06-22T04:22:20;13.40;;;9.67;;
7539;SDS011;3811;49.006;12.076;2023-06-22T04:24:47;9.77;;;8.53;;
7539;SDS011;3811;49.006;12.076;2023-06-22T04:27:16;11.57;;;9.07;;
7539;SDS011;3811;49.006;12.076;2023-06-22T04:29:44;10.53;;;9.37;;
7539;SDS011;3811;49.006;12.076;2023-06-22T04:32:14;10.67;;;9.53;;
7539;SDS011;3811;49.006;12.076;2023-06-22T04:34:41;9.73;;;8.73;;
7539;SDS011;3811;49.006;12.076;2023-06-22T04:37:09;10.23;;;9.13;;
7539;SDS011;3811;49.006;12.076;2023-06-22T04:39:41;10.53;;;9.43;;
7539;SDS011;3811;49.006;12.076;2023-06-22T04:42:09;11.97;;;9.97;;
7539;SDS011;3811;49.006;12.076;2023-06-22T04:44:36;10.27;;;8.63;;
7539;SDS011;3811;49.006;12.076;2023-06-22T04:47:05;10.47;;;8.57;;
7539;SDS011;3811;49.006;12.076;2023-06-22T04:49:34;10.57;;;9.47;;
7539;SDS011;3811;49.006;12.076;2023-06-22T04:52:03;10.90;;;9.27;;
7539;SDS011;3811;49.006;12.076;2023-06-22T04:54:31;15.53;;;8.63;;
7539;SDS011;3811;49.006;12.076;2023-06-22T04:57:00;10.83;;;9.23;;
7539;SDS011;3811;49.006;12.076;2023-06-22T04:59:28;10.57;;;9.33;;
7539;SDS011;3811;49.006;12.076;2023-06-22T05:01:57;13.17;;;9.90;;
7539;SDS011;3811;49.006;12.076;2023-06-22T05:04:24;10.60;;;9.27;;
7539;SDS011;3811;49.006;12.076;2023-06-22T05:06:52;11.30;;;9.27;;
7539;SDS011;3811;49.006;12.076;2023-06-22T05:09:20;9.97;;;8.90;;
7539;SDS011;3811;49.006;12.076;2023-06-22T05:11:47;10.80;;;8.97;;
7539;SDS011;3811;49.006;12.076;2023-06-22T05:14:16;10.17;;;9.17;;
7539;SDS011;3811;49.006;12.076;2023-06-22T05:16:43;9.60;;;8.70;;
7539;SDS011;3811;49.006;12.076;2023-06-22T05:19:11;11.00;;;8.90;;
7539;SDS011;3811;49.006;12.076;2023-06-22T05:21:38;9.80;;;8.80;;
7539;SDS011;3811;49.006;12.076;2023-06-22T05:24:06;9.70;;;8.70;;
7539;SDS011;3811;49.006;12.076;2023-06-22T05:26:33;9.93;;;8.63;;
7539;SDS011;3811;49.006;12.076;2023-06-22T05:29:02;9.07;;;8.17;;
7539;SDS011;3811;49.006;12.076;2023-06-22T05:31:30;10.40;;;9.20;;
7539;SDS011;3811;49.006;12.076;2023-06-22T05:33:58;10.73;;;8.37;;
7539;SDS011;3811;49.006;12.076;2023-06-22T05:36:26;9.13;;;8.23;;
7539;SDS011;3811;49.006;12.076;2023-06-22T05:38:53;8.77;;;7.87;;
7539;SDS011;3811;49.006;12.076;2023-06-22T05:41:20;9.93;;;7.37;;
7539;SDS011;3811;49.006;12.076;2023-06-22T05:43:47;8.37;;;7.57;;
7539;SDS011;3811;49.006;12.076;2023-06-22T05:46:14;9.20;;;7.80;;
7539;SDS011;3811;49.006;12.076;2023-06-22T05:48:43;14.10;;;7.93;;
7539;SDS011;3811;49.006;12.076;2023-06-22T05:51:10;10.60;;;7.97;;
7539;SDS011;3811;49.006;12.076;2023-06-22T05:53:37;8.40;;;7.63;;
7539;SDS011;3811;49.006;12.076;2023-06-22T05:56:05;10.53;;;7.80;;
7539;SDS011;3811;49.006;12.076;2023-06-22T05:58:32;8.87;;;8.00;;
7539;SDS011;3811;49.006;12.076;2023-06-22T06:00:59;8.70;;;7.60;;
7539;SDS011;3811;49.006;12.076;2023-06-22T06:03:27;8.30;;;7.50;;
7539;SDS011;3811;49.006;12.076;2023-06-22T06:05:56;8.47;;;7.37;;
7539;SDS011;3811;49.006;12.076;2023-06-22T06:08:23;10.83;;;8.80;;
7539;SDS011;3811;49.006;12.076;2023-06-22T06:10:51;7.63;;;6.87;;
7539;SDS011;3811;49.006;12.076;2023-06-22T06:13:20;8.63;;;7.43;;
7539;SDS011;3811;49.006;12.076;2023-06-22T06:15:47;9.17;;;7.23;;
7539;SDS011;3811;49.006;12.076;2023-06-22T06:18:16;8.33;;;7.53;;
7539;SDS011;3811;49.006;12.076;2023-06-22T06:20:43;8.07;;;7.33;;
7539;SDS011;3811;49.006;12.076;2023-06-22T06:23:12;9.17;;;6.73;;
7539;SDS011;3811;49.006;12.076;2023-06-22T06:25:39;11.63;;;7.03;;
7539;SDS011;3811;49.006;12.076;2023-06-22T06:28:06;8.60;;;7.70;;
7539;SDS011;3811;49.006;12.076;2023-06-22T06:30:33;7.73;;;6.97;;
7539;SDS011;3811;49.006;12.076;2023-06-22T06:33:02;7.87;;;7.13;;
7539;SDS011;3811;49.006;12.076;2023-06-22T06:35:32;7.37;;;6.77;;
7539;SDS011;3811;49.006;12.076;2023-06-22T06:37:59;7.80;;;6.97;;
7539;SDS011;3811;49.006;12.076;2023-06-22T06:40:29;8.87;;;7.07;;
7539;SDS011;3811;49.006;12.076;2023-06-22T06:42:56;7.53;;;6.80;;
7539;SDS011;3811;49.006;12.076;2023-06-22T06:45:24;9.53;;;6.57;;
7539;SDS011;3811;49.006;12.076;2023-06-22T06:47:52;7.93;;;6.73;;
7539;SDS011;3811;49.006;12.076;2023-06-22T06:50:19;8.17;;;7.23;;
7539;SDS011;3811;49.006;12.076;2023-06-22T06:52:46;7.53;;;6.70;;
7539;SDS011;3811;49.006;12.076;2023-06-22T06:55:15;8.73;;;6.53;;
7539;SDS011;3811;49.006;12.076;2023-06-22T06:57:44;6.73;;;6.03;;
7539;SDS011;3811;49.006;12.076;2023-06-22T07:00:14;7.67;;;6.50;;
7539;SDS011;3811;49.006;12.076;2023-06-22T07:02:41;8.80;;;7.00;;
7539;SDS011;3811;49.006;12.076;2023-06-22T07:05:09;7.60;;;6.90;;
7539;SDS011;3811;49.006;12.076;2023-06-22T07:07:37;7.33;;;6.63;;
7539;SDS011;3811;49.006;12.076;2023-06-22T07:10:04;7.10;;;6.33;;
7539;SDS011;3811;49.006;12.076;2023-06-22T07:12:32;8.00;;;6.40;;
7539;SDS011;3811;49.006;12.076;2023-06-22T07:15:04;7.73;;;6.67;;
7539;SDS011;3811;49.006;12.076;2023-06-22T07:17:33;7.53;;;6.77;;
7539;SDS011;3811;49.006;12.076;2023-06-22T07:20:00;8.93;;;6.40;;
7539;SDS011;3811;49.006;12.076;2023-06-22T07:22:30;7.77;;;6.97;;
7539;SDS011;3811;49.006;12.076;2023-06-22T07:24:57;6.47;;;5.87;;
7539;SDS011;3811;49.006;12.076;2023-06-22T07:27:24;8.20;;;6.80;;
7539;SDS011;3811;49.006;12.076;2023-06-22T07:29:51;7.83;;;6.50;;
7539;SDS011;3811;49.006;12.076;2023-06-22T07:32:19;10.93;;;6.37;;
7539;SDS011;3811;49.006;12.076;2023-06-22T07:34:46;7.37;;;6.67;;
7539;SDS011;3811;49.006;12.076;2023-06-22T07:37:14;6.53;;;5.83;;
7539;SDS011;3811;49.006;12.076;2023-06-22T07:39:41;8.80;;;7.17;;
7539;SDS011;3811;49.006;12.076;2023-06-22T07:42:08;6.73;;;6.07;;
7539;SDS011;3811;49.006;12.076;2023-06-22T07:44:35;6.17;;;5.67;;
7539;SDS011;3811;49.006;12.076;2023-06-22T07:47:03;6.50;;;5.90;;
7539;SDS011;3811;49.006;12.076;2023-06-22T07:49:31;6.77;;;5.93;;
7539;SDS011;3811;49.006;12.076;2023-06-22T07:51:58;7.87;;;5.20;;
7539;SDS011;3811;49.006;12.076;2023-06-22T07:54:26;6.67;;;5.30;;
7539;SDS011;3811;49.006;12.076;2023-06-22T07:56:53;8.40;;;5.77;;
7539;SDS011;3811;49.006;12.076;2023-06-22T07:59:20;6.40;;;5.67;;
7539;SDS011;3811;49.006;12.076;2023-06-22T08:01:48;7.13;;;5.70;;
7539;SDS011;3811;49.006;12.076;2023-06-22T08:04:15;6.40;;;5.63;;
7539;SDS011;3811;49.006;12.076;2023-06-22T08:06:44;5.80;;;5.20;;
7539;SDS011;3811;49.006;12.076;2023-06-22T08:09:11;6.57;;;5.87;;
7539;SDS011;3811;49.006;12.076;2023-06-22T08:11:38;11.77;;;6.80;;
7539;SDS011;3811;49.006;12.076;2023-06-22T08:14:06;9.30;;;6.03;;
7539;SDS011;3811;49.006;12.076;2023-06-22T08:16:33;7.50;;;5.20;;
7539;SDS011;3811;49.006;12.076;2023-06-22T08:19:00;5.57;;;5.07;;
7539;SDS011;3811;49.006;12.076;2023-06-22T08:21:27;5.80;;;5.20;;
7539;SDS011;3811;49.006;12.076;2023-06-22T08:23:56;8.77;;;5.60;;
7539;SDS011;3811;49.006;12.076;2023-06-22T08:26:23;5.63;;;4.97;;
7539;SDS011;3811;49.006;12.076;2023-06-22T08:28:50;8.17;;;4.97;;
7539;SDS011;3811;49.006;12.076;2023-06-22T08:31:17;6.53;;;4.70;;
7539;SDS011;3811;49.006;12.076;2023-06-22T08:33:45;6.97;;;5.33;;
7539;SDS011;3811;49.006;12.076;2023-06-22T08:36:12;6.47;;;4.93;;
7539;SDS011;3811;49.006;12.076;2023-06-22T08:38:39;6.80;;;5.00;;
7539;SDS011;3811;49.006;12.076;2023-06-22T08:41:08;5.13;;;4.63;;
7539;SDS011;3811;49.006;12.076;2023-06-22T08:43:35;5.80;;;4.60;;
7539;SDS011;3811;49.006;12.076;2023-06-22T08:46:02;5.87;;;4.90;;
7539;SDS011;3811;49.006;12.076;2023-06-22T08:48:30;5.27;;;4.77;;
7539;SDS011;3811;49.006;12.076;2023-06-22T08:50:57;5.50;;;4.50;;
7539;SDS011;3811;49.006;12.076;2023-06-22T08:53:24;6.63;;;4.93;;
7539;SDS011;3811;49.006;12.076;2023-06-22T08:55:51;8.17;;;4.63;;
7539;SDS011;3811;49.006;12.076;2023-06-22T08:58:20;9.80;;;5.20;;
7539;SDS011;3811;49.006;12.076;2023-06-22T09:00:49;5.67;;;4.73;;
7539;SDS011;3811;49.006;12.076;2023-06-22T09:03:16;7.23;;;4.80;;
7539;SDS011;3811;49.006;12.076;2023-06-22T09:05:45;8.17;;;4.77;;
7539;SDS011;3811;49.006;12.076;2023-06-22T09:08:12;5.77;;;4.80;;
7539;SDS011;3811;49.006;12.076;2023-06-22T09:10:40;6.03;;;4.63;;
7539;SDS011;3811;49.006;12.076;2023-06-22T09:13:07;5.77;;;4.67;;
7539;SDS011;3811;49.006;12.076;2023-06-22T09:15:35;9.93;;;5.07;;
7539;SDS011;3811;49.006;12.076;2023-06-22T09:18:03;5.37;;;4.67;;
7539;SDS011;3811;49.006;12.076;2023-06-22T09:20:30;5.57;;;4.53;;
7539;SDS011;3811;49.006;12.076;2023-06-22T09:22:57;6.87;;;5.00;;
7539;SDS011;3811;49.006;12.076;2023-06-22T09:25:25;9.13;;;5.00;;
7539;SDS011;3811;49.006;12.076;2023-06-22T09:27:52;7.20;;;4.40;;
7539;SDS011;3811;49.006;12.076;2023-06-22T09:30:19;6.97;;;5.07;;
7539;SDS011;3811;49.006;12.076;2023-06-22T09:32:48;7.07;;;5.00;;
7539;SDS011;3811;49.006;12.076;2023-06-22T09:35:15;6.23;;;4.87;;
7539;SDS011;3811;49.006;12.076;2023-06-22T09:37:42;7.27;;;5.07;;
7539;SDS011;3811;49.006;12.076;2023-06-22T09:40:10;9.03;;;5.30;;
7539;SDS011;3811;49.006;12.076;2023-06-22T09:42:41;5.47;;;4.70;;
7539;SDS011;3811;49.006;12.076;2023-06-22T09:45:08;6.80;;;4.97;;
7539;SDS011;3811;49.006;12.076;2023-06-22T09:47:35;7.10;;;4.90;;
7539;SDS011;3811;49.006;12.076;2023-06-22T09:50:05;5.78;;;5.13;;
7539;SDS011;3811;49.006;12.076;2023-06-22T09:52:32;6.50;;;4.95;;
7539;SDS011;3811;49.006;12.076;2023-06-22T09:54:59;6.45;;;4.47;;
7539;SDS011;3811;49.006;12.076;2023-06-22T09:57:28;9.10;;;4.63;;
7539;SDS011;3811;49.006;12.076;2023-06-22T09:59:56;6.40;;;4.75;;
7539;SDS011;3811;49.006;12.076;2023-06-22T10:02:24;6.70;;;4.90;;
7539;SDS011;3811;49.006;12.076;2023-06-22T10:04:50;6.88;;;5.13;;
7539;SDS011;3811;49.006;12.076;2023-06-22T10:07:19;7.63;;;4.88;;
7539;SDS011;3811;49.006;12.076;2023-06-22T10:09:46;6.95;;;5.25;;
7539;SDS011;3811;49.006;12.076;2023-06-22T10:12:13;6.32;;;5.15;;
7539;SDS011;3811;49.006;12.076;2023-06-22T10:14:40;5.40;;;4.90;;
7539;SDS011;3811;49.006;12.076;2023-06-22T10:17:07;5.97;;;4.72;;
7539;SDS011;3811;49.006;12.076;2023-06-22T10:19:34;6.15;;;4.60;;
7539;SDS011;3811;49.006;12.076;2023-06-22T10:22:02;11.00;;;5.40;;
7539;SDS011;3811;49.006;12.076;2023-06-22T10:24:31;7.20;;;4.97;;
7539;SDS011;3811;49.006;12.076;2023-06-22T10:26:59;7.57;;;5.43;;
7539;SDS011;3811;49.006;12.076;2023-06-22T10:29:26;7.60;;;5.10;;
7539;SDS011;3811;49.006;12.076;2023-06-22T10:31:52;6.68;;;5.60;;
7539;SDS011;3811;49.006;12.076;2023-06-22T10:34:20;8.10;;;5.43;;
7539;SDS011;3811;49.006;12.076;2023-06-22T10:36:47;8.10;;;5.10;;
7539;SDS011;3811;49.006;12.076;2023-06-22T10:39:14;8.30;;;5.57;;
7539;SDS011;3811;49.006;12.076;2023-06-22T10:41:43;6.45;;;4.68;;
7539;SDS011;3811;49.006;12.076;2023-06-22T10:44:10;8.38;;;5.30;;
7539;SDS011;3811;49.006;12.076;2023-06-22T10:46:37;8.90;;;4.88;;
7539;SDS011;3811;49.006;12.076;2023-06-22T10:49:04;7.95;;;5.38;;
7539;SDS011;3811;49.006;12.076;2023-06-22T10:51:31;9.32;;;4.88;;
7539;SDS011;3811;49.006;12.076;2023-06-22T10:53:59;5.63;;;4.53;;
7539;SDS011;3811;49.006;12.076;2023-06-22T10:56:25;6.15;;;4.88;;
7539;SDS011;3811;49.006;12.076;2023-06-22T10:58:54;7.80;;;5.40;;
7539;SDS011;3811;49.006;12.076;2023-06-22T11:01:21;6.78;;;5.40;;
7539;SDS011;3811;49.006;12.076;2023-06-22T11:03:48;7.07;;;5.22;;
7539;SDS011;3811;49.006;12.076;2023-06-22T11:06:15;10.65;;;5.28;;
7539;SDS011;3811;49.006;12.076;2023-06-22T11:08:43;6.57;;;4.93;;
7539;SDS011;3811;49.006;12.076;2023-06-22T11:11:10;8.25;;;5.72;;
7539;SDS011;3811;49.006;12.076;2023-06-22T11:13:38;10.68;;;5.88;;
7539;SDS011;3811;49.006;12.076;2023-06-22T11:16:06;8.73;;;5.18;;
7539;SDS011;3811;49.006;12.076;2023-06-22T11:18:33;8.48;;;5.20;;
7539;SDS011;3811;49.006;12.076;2023-06-22T11:21:00;5.90;;;4.93;;
7539;SDS011;3811;49.006;12.076;2023-06-22T11:23:27;8.55;;;5.55;;
7539;SDS011;3811;49.006;12.076;2023-06-22T11:25:55;9.02;;;5.85;;
7539;SDS011;3811;49.006;12.076;2023-06-22T11:28:22;6.70;;;5.07;;
7539;SDS011;3811;49.006;12.076;2023-06-22T11:30:49;8.88;;;5.05;;
7539;SDS011;3811;49.006;12.076;2023-06-22T11:33:17;6.15;;;5.20;;
7539;SDS011;3811;49.006;12.076;2023-06-22T11:35:44;12.27;;;5.88;;
7539;SDS011;3811;49.006;12.076;2023-06-22T11:38:11;7.68;;;5.95;;
7539;SDS011;3811;49.006;12.076;2023-06-22T11:40:39;7.00;;;5.47;;
7539;SDS011;3811;49.006;12.076;2023-06-22T11:43:06;5.93;;;4.97;;
7539;SDS011;3811;49.006;12.076;2023-06-22T11:45:33;7.13;;;5.47;;
7539;SDS011;3811;49.006;12.076;2023-06-22T11:48:00;6.82;;;5.60;;
7539;SDS011;3811;49.006;12.076;2023-06-22T11:50:29;11.85;;;6.30;;
7539;SDS011;3811;49.006;12.076;2023-06-22T11:53:00;9.05;;;6.07;;
7539;SDS011;3811;49.006;12.076;2023-06-22T11:55:28;5.88;;;5.13;;
7539;SDS011;3811;49.006;12.076;2023-06-22T11:57:57;12.40;;;5.80;;
7539;SDS011;3811;49.006;12.076;2023-06-22T12:00:28;8.38;;;5.63;;
7539;SDS011;3811;49.006;12.076;2023-06-22T12:02:55;8.43;;;5.50;;
7539;SDS011;3811;49.006;12.076;2023-06-22T12:05:22;7.88;;;6.43;;
7539;SDS011;3811;49.006;12.076;2023-06-22T12:07:52;9.40;;;5.32;;
7539;SDS011;3811;49.006;12.076;2023-06-22T12:10:19;10.77;;;5.80;;
7539;SDS011;3811;49.006;12.076;2023-06-22T12:12:47;12.20;;;6.05;;
7539;SDS011;3811;49.006;12.076;2023-06-22T12:15:14;8.75;;;5.85;;
7539;SDS011;3811;49.006;12.076;2023-06-22T12:17:41;9.40;;;5.57;;
7539;SDS011;3811;49.006;12.076;2023-06-22T12:20:08;10.43;;;5.45;;
7539;SDS011;3811;49.006;12.076;2023-06-22T12:22:36;9.30;;;5.95;;
7539;SDS011;3811;49.006;12.076;2023-06-22T12:25:05;9.40;;;6.47;;
7539;SDS011;3811;49.006;12.076;2023-06-22T12:27:33;9.05;;;5.40;;
7539;SDS011;3811;49.006;12.076;2023-06-22T12:30:00;11.25;;;5.68;;
7539;SDS011;3811;49.006;12.076;2023-06-22T12:32:28;9.25;;;5.55;;
7539;SDS011;3811;49.006;12.076;2023-06-22T12:34:55;12.98;;;5.78;;
7539;SDS011;3811;49.006;12.076;2023-06-22T12:37:22;7.63;;;5.65;;
7539;SDS011;3811;49.006;12.076;2023-06-22T12:39:49;8.98;;;5.60;;
7539;SDS011;3811;49.006;12.076;2023-06-22T12:42:18;7.05;;;5.60;;
7539;SDS011;3811;49.006;12.076;2023-06-22T12:44:46;9.63;;;5.50;;
7539;SDS011;3811;49.006;12.076;2023-06-22T12:47:13;5.93;;;5.40;;
7539;SDS011;3811;49.006;12.076;2023-06-22T12:49:40;8.73;;;5.40;;
7539;SDS011;3811;49.006;12.076;2023-06-22T12:52:11;10.52;;;6.07;;
7539;SDS011;3811;49.006;12.076;2023-06-22T12:54:38;7.82;;;5.38;;
7539;SDS011;3811;49.006;12.076;2023-06-22T12:57:05;10.23;;;5.45;;
7539;SDS011;3811;49.006;12.076;2023-06-22T12:59:34;6.10;;;5.50;;
7539;SDS011;3811;49.006;12.076;2023-06-22T13:02:01;7.55;;;5.05;;
7539;SDS011;3811;49.006;12.076;2023-06-22T13:04:28;9.05;;;5.38;;
7539;SDS011;3811;49.006;12.076;2023-06-22T13:06:55;8.85;;;5.55;;
7539;SDS011;3811;49.006;12.076;2023-06-22T13:09:22;6.60;;;4.95;;
7539;SDS011;3811;49.006;12.076;2023-06-22T13:11:50;8.80;;;5.32;;
7539;SDS011;3811;49.006;12.076;2023-06-22T13:14:17;10.07;;;5.18;;
7539;SDS011;3811;49.006;12.076;2023-06-22T13:16:46;7.15;;;5.50;;
7539;SDS011;3811;49.006;12.076;2023-06-22T13:19:13;8.43;;;5.30;;
7539;SDS011;3811;49.006;12.076;2023-06-22T13:21:40;11.35;;;5.50;;
7539;SDS011;3811;49.006;12.076;2023-06-22T13:24:07;8.07;;;5.35;;
7539;SDS011;3811;49.006;12.076;2023-06-22T13:26:35;5.50;;;4.95;;
7539;SDS011;3811;49.006;12.076;2023-06-22T13:29:02;7.80;;;5.55;;
7539;SDS011;3811;49.006;12.076;2023-06-22T13:31:29;14.23;;;5.47;;
7539;SDS011;3811;49.006;12.076;2023-06-22T13:33:57;10.13;;;5.68;;
7539;SDS011;3811;49.006;12.076;2023-06-22T13:36:25;6.75;;;5.93;;
7539;SDS011;3811;49.006;12.076;2023-06-22T13:38:55;8.30;;;5.53;;
7539;SDS011;3811;49.006;12.076;2023-06-22T13:41:22;8.20;;;5.90;;
7539;SDS011;3811;49.006;12.076;2023-06-22T13:43:49;11.13;;;6.30;;
7539;SDS011;3811;49.006;12.076;2023-06-22T13:46:16;11.63;;;5.80;;
7539;SDS011;3811;49.006;12.076;2023-06-22T13:48:44;8.32;;;5.55;;
7539;SDS011;3811;49.006;12.076;2023-06-22T13:51:12;12.85;;;5.70;;
7539;SDS011;3811;49.006;12.076;2023-06-22T13:53:40;8.85;;;6.13;;
7539;SDS011;3811;49.006;12.076;2023-06-22T13:56:07;9.65;;;6.05;;
7539;SDS011;3811;49.006;12.076;2023-06-22T13:58:34;9.85;;;5.70;;
7539;SDS011;3811;49.006;12.076;2023-06-22T14:01:02;8.00;;;4.75;;
7539;SDS011;3811;49.006;12.076;2023-06-22T14:03:29;9.98;;;5.63;;
7539;SDS011;3811;49.006;12.076;2023-06-22T14:05:56;7.50;;;5.28;;
7539;SDS011;3811;49.006;12.076;2023-06-22T14:08:26;9.07;;;6.60;;
7539;SDS011;3811;49.006;12.076;2023-06-22T14:10:53;8.45;;;5.47;;
7539;SDS011;3811;49.006;12.076;2023-06-22T14:13:20;8.23;;;5.60;;
7539;SDS011;3811;49.006;12.076;2023-06-22T14:15:48;10.77;;;5.53;;
7539;SDS011;3811;49.006;12.076;2023-06-22T14:18:17;11.93;;;5.57;;
7539;SDS011;3811;49.006;12.076;2023-06-22T14:20:44;10.70;;;5.97;;
7539;SDS011;3811;49.006;12.076;2023-06-22T14:23:13;11.70;;;5.70;;
7539;SDS011;3811;49.006;12.076;2023-06-22T14:25:41;8.65;;;5.60;;
7539;SDS011;3811;49.006;12.076;2023-06-22T14:28:08;6.50;;;5.28;;
7539;SDS011;3811;49.006;12.076;2023-06-22T14:30:36;8.00;;;5.28;;
7539;SDS011;3811;49.006;12.076;2023-06-22T14:33:03;8.38;;;5.53;;
7539;SDS011;3811;49.006;12.076;2023-06-22T14:35:30;9.20;;;5.72;;
7539;SDS011;3811;49.006;12.076;2023-06-22T14:37:58;11.50;;;5.00;;
7539;SDS011;3811;49.006;12.076;2023-06-22T14:40:25;12.93;;;5.43;;
7539;SDS011;3811;49.006;12.076;2023-06-22T14:42:53;9.90;;;6.00;;
7539;SDS011;3811;49.006;12.076;2023-06-22T14:45:21;9.25;;;5.38;;
7539;SDS011;3811;49.006;12.076;2023-06-22T14:47:48;12.88;;;6.20;;
7539;SDS011;3811;49.006;12.076;2023-06-22T14:50:16;11.40;;;6.07;;
7539;SDS011;3811;49.006;12.076;2023-06-22T14:52:43;9.10;;;5.45;;
7539;SDS011;3811;49.006;12.076;2023-06-22T14:55:10;9.15;;;5.60;;
7539;SDS011;3811;49.006;12.076;2023-06-22T14:57:38;10.55;;;5.53;;
7539;SDS011;3811;49.006;12.076;2023-06-22T15:00:07;8.23;;;5.30;;
7539;SDS011;3811;49.006;12.076;2023-06-22T15:02:34;10.93;;;5.35;;